This is the latest recevied weather packets stored in our database for station/object SQ9MHX-13. If no packets are shown the sender has not sent any weather packets the latest 1 day(s).
| Time | Temp. | Humidity | Pressure | Rain* | Wind** | Luminosity | Snow |
|---|---|---|---|---|---|---|---|
| 1778105419 | 15° C | 81% | 957.4 hPa | - | 0 m/s | - | - |
| 1778104523 | 15° C | 80% | 957.2 hPa | - | 0 m/s | - | - |
| 1778103627 | 15° C | 80% | 957.4 hPa | - | 0 m/s | - | - |
| 1778101835 | 15° C | 79% | 956.9 hPa | - | 0 m/s | - | - |
| 1778100939 | 15° C | 78% | 956.6 hPa | - | 0 m/s | - | - |
| 1778100043 | 15° C | 77% | 956.8 hPa | - | 0 m/s | - | - |
| 1778099147 | 15° C | 76% | 956.7 hPa | - | 0 m/s | - | - |
| 1778098251 | 15° C | 77% | 957.1 hPa | - | 0 m/s | - | - |
| 1778097654 | 15° C | 76% | 956.7 hPa | - | 0 m/s | - | - |
| 1778097355 | 15° C | 75% | 956.6 hPa | - | 0 m/s | - | - |
| 1778096459 | 16.11° C | 71% | 956.4 hPa | - | 0 m/s | - | - |
| 1778095862 | 16.11° C | 71% | 956 hPa | - | 0 m/s | - | - |
| 1778094966 | 16.11° C | 70% | 955.5 hPa | - | 0 m/s | - | - |
| 1778093174 | 16.11° C | 69% | 955.2 hPa | - | 0 m/s | - | - |
| 1778091979 | 16.11° C | 68% | 954.7 hPa | - | 0 m/s | - | - |
| 1778090784 | 17.22° C | 65% | 953.9 hPa | - | 0 m/s | - | - |
| 1778090187 | 17.22° C | 65% | 953.2 hPa | - | 0 m/s | - | - |
| 1778088693 | 17.78° C | 61% | 951.9 hPa | - | 0 m/s | - | - |
| 1778088394 | 17.78° C | 59% | 951.5 hPa | - | 0 m/s | - | - |
| 1778086601 | 18.89° C | 48% | 949.7 hPa | - | 0 m/s | - | - |
| 1778086003 | 18.89° C | 48% | 949.6 hPa | - | 0 m/s | - | - |
| 1778083316 | 23.89° C | 40% | 943.4 hPa | - | 0 m/s | - | - |
| 1778083013 | 23.89° C | 39% | 943.5 hPa | - | 0 m/s | - | - |
| 1778081218 | 23.89° C | 38% | 941.1 hPa | - | 0 m/s | - | - |
| 1778080021 | 25° C | 37% | 941 hPa | - | 0 m/s | - | - |
* Rain since midnight (hover to see other rain measurements)
** Current wind speed in m/s (hover to see current wind gust speed)